createdAt,value
2019-04-25T00:00:48.307Z,63.69
2019-04-25T00:03:18.209Z,64.67
2019-04-25T00:05:45.869Z,64.18
2019-04-25T00:08:14.291Z,63.77
2019-04-25T00:10:43.754Z,63.44
2019-04-25T00:13:12.236Z,63.92
2019-04-25T00:15:42.171Z,64.54
2019-04-25T00:18:11.934Z,63.74
2019-04-25T00:20:42.657Z,63.41
2019-04-25T00:23:13.360Z,63.66
2019-04-25T00:25:45.844Z,64.60
2019-04-25T00:28:13.247Z,64.73
2019-04-25T00:30:43.294Z,64.43
2019-04-25T00:33:11.633Z,64.43
2019-04-25T00:35:42.302Z,64.24
2019-04-25T00:38:09.898Z,64.53
2019-04-25T00:40:38.171Z,65.53
2019-04-25T00:43:06.420Z,65.22
2019-04-25T00:45:34.706Z,65.01
2019-04-25T00:48:04.347Z,65.14
2019-04-25T00:50:33.054Z,64.44
2019-04-25T00:53:01.310Z,64.96
2019-04-25T00:55:31.025Z,64.95
2019-04-25T00:58:01.636Z,64.98
2019-04-25T01:00:32.901Z,65.14
2019-04-25T01:03:03.398Z,65.08
2019-04-25T01:05:31.725Z,65.06
2019-04-25T01:07:59.977Z,65.92
2019-04-25T01:10:28.268Z,66.03
2019-04-25T01:12:56.511Z,65.80
2019-04-25T01:15:24.759Z,65.62
2019-04-25T01:17:53.471Z,66.33
2019-04-25T01:20:21.768Z,67.67
2019-04-25T01:22:50.034Z,66.59
2019-04-25T01:25:18.278Z,66.97
2019-04-25T01:27:47.660Z,66.54
2019-04-25T01:30:18.367Z,66.83
2019-04-25T01:32:46.818Z,66.74
2019-04-25T01:35:33.516Z,66.35
2019-04-25T01:38:21.529Z,66.54
2019-04-25T01:40:54.442Z,67.03
2019-04-25T01:43:41.020Z,66.40
2019-04-25T01:46:09.618Z,66.26
2019-04-25T01:48:37.885Z,65.23
2019-04-25T01:51:06.152Z,64.96
2019-04-25T01:53:35.650Z,67.12
2019-04-25T01:56:07.632Z,67.30
2019-04-25T01:58:34.208Z,67.93
2019-04-25T02:01:03.174Z,68.88
2019-04-25T02:03:35.427Z,69.24
2019-04-25T02:06:04.921Z,69.06
2019-04-25T02:08:33.974Z,69.54
2019-04-25T02:11:22.071Z,72.19
2019-04-25T02:13:51.399Z,71.30
2019-04-25T02:16:19.897Z,74.18
2019-04-25T02:18:48.152Z,75.71
2019-04-25T02:21:16.402Z,73.21
2019-04-25T02:23:44.667Z,72.08
2019-04-25T02:26:16.789Z,72.33
2019-04-25T02:28:43.724Z,73.31
2019-04-25T02:31:12.037Z,73.11
2019-04-25T02:33:40.304Z,72.47
2019-04-25T02:36:08.999Z,73.53
2019-04-25T02:38:37.313Z,73.53
2019-04-25T02:41:08.344Z,73.61
2019-04-25T02:43:35.644Z,73.05
2019-04-25T02:46:08.130Z,72.08
2019-04-25T02:48:50.393Z,72.66
2019-04-25T02:51:38.646Z,72.14
2019-04-25T02:54:08.186Z,72.47
2019-04-25T02:56:38.852Z,71.93
2019-04-25T02:59:08.746Z,72.30
2019-04-25T03:01:36.512Z,74.46
2019-04-25T03:04:08.553Z,76.64
2019-04-25T03:06:35.180Z,76.65
2019-04-25T03:09:17.265Z,78.06
2019-04-25T03:11:47.576Z,77.10
2019-04-25T03:14:15.561Z,77.46
2019-04-25T03:16:44.820Z,76.75
2019-04-25T03:19:15.005Z,76.36
2019-04-25T03:21:45.302Z,76.07
2019-04-25T03:24:16.593Z,76.08
2019-04-25T03:26:44.306Z,77.42
2019-04-25T03:29:13.672Z,78.63
2019-04-25T03:31:44.745Z,78.80
2019-04-25T03:34:17.214Z,77.87
2019-04-25T03:36:43.869Z,76.22
2019-04-25T03:39:14.460Z,75.15
2019-04-25T03:41:42.256Z,74.54
2019-04-25T03:44:10.548Z,75.34
2019-04-25T03:46:38.793Z,75.81
2019-04-25T03:49:07.638Z,75.20
2019-04-25T03:51:36.017Z,75.99
2019-04-25T03:54:07.182Z,77.30
2019-04-25T03:56:34.269Z,79.68
2019-04-25T03:59:04.945Z,80.35
2019-04-25T04:01:34.126Z,79.93
2019-04-25T04:04:04.625Z,81.72
2019-04-25T04:06:33.982Z,80.76
2019-04-25T04:09:04.666Z,78.72
2019-04-25T04:11:33.737Z,78.72
2019-04-25T04:14:03.915Z,78.36
2019-04-25T04:16:34.257Z,77.86
2019-04-25T04:19:04.004Z,76.98
2019-04-25T04:21:53.208Z,76.61
2019-04-25T04:24:23.956Z,77.21
2019-04-25T04:27:03.499Z,76.86
2019-04-25T04:29:25.557Z,77.30
2019-04-25T04:31:54.382Z,78.60
2019-04-25T04:34:23.554Z,80.56
2019-04-25T04:36:51.237Z,80.99
2019-04-25T04:39:19.497Z,78.83
2019-04-25T04:41:47.769Z,77.91
2019-04-25T04:44:16.508Z,77.31
2019-04-25T04:46:44.790Z,77.06
2019-04-25T04:49:14.443Z,77.31
2019-04-25T04:51:44.387Z,76.65
2019-04-25T04:54:13.533Z,76.29
2019-04-25T04:56:43.838Z,77.13
2019-04-25T04:59:12.867Z,76.78
2019-04-25T05:01:59.833Z,78.07
2019-04-25T05:04:29.709Z,77.04
2019-04-25T05:07:15.434Z,76.54
2019-04-25T05:09:44.548Z,76.06
2019-04-25T05:12:13.439Z,77.02
2019-04-25T05:14:43.653Z,76.31
2019-04-25T05:17:12.226Z,75.70
2019-04-25T05:19:40.892Z,74.96
2019-04-25T05:22:09.172Z,74.86
2019-04-25T05:24:37.464Z,75.31
2019-04-25T05:27:05.740Z,77.20
2019-04-25T05:29:34.120Z,76.75
2019-04-25T05:32:04.133Z,77.92
2019-04-25T05:34:34.212Z,78.02
2019-04-25T05:37:03.855Z,78.30
2019-04-25T05:39:33.349Z,77.85
2019-04-25T05:42:04.317Z,77.07
2019-04-25T05:44:34.324Z,77.98
2019-04-25T05:47:04.141Z,77.35
2019-04-25T05:49:31.876Z,77.11
2019-04-25T05:52:00.156Z,77.82
2019-04-25T05:54:34.503Z,77.32
2019-04-25T05:57:03.718Z,77.28
2019-04-25T05:59:33.541Z,78.23
2019-04-25T06:02:01.381Z,77.73
2019-04-25T06:04:29.647Z,77.51
2019-04-25T06:06:57.930Z,77.50
2019-04-25T06:09:36.487Z,76.05
2019-04-25T06:14:59.144Z,75.05
2019-04-25T06:17:47.333Z,75.01
2019-04-25T06:20:17.231Z,74.65
2019-04-25T06:22:50.081Z,75.23
2019-04-25T06:25:21.808Z,76.47
2019-04-25T06:27:57.222Z,76.60
2019-04-25T06:30:24.948Z,77.24
2019-04-25T06:32:53.372Z,76.48
2019-04-25T06:35:24.494Z,76.86
2019-04-25T06:37:51.586Z,76.75
2019-04-25T06:40:20.570Z,76.19
2019-04-25T06:42:48.904Z,75.15
2019-04-25T06:45:18.897Z,75.73
2019-04-25T06:47:48.812Z,75.20
2019-04-25T06:50:17.063Z,74.28
2019-04-25T06:52:45.349Z,74.65
2019-04-25T06:55:14.085Z,73.33
2019-04-25T06:57:44.093Z,73.20
2019-04-25T07:00:14.264Z,73.20
2019-04-25T07:02:43.542Z,71.20
2019-04-25T07:05:24.500Z,71.71
2019-04-25T07:07:45.263Z,69.12
2019-04-25T07:10:13.342Z,70.71
2019-04-25T07:12:41.153Z,67.71
2019-04-25T07:15:09.761Z,69.56
2019-04-25T07:17:38.019Z,69.57
2019-04-25T07:20:07.539Z,66.40
2019-04-25T07:22:36.255Z,68.75
2019-04-25T07:25:05.402Z,66.48
2019-04-25T07:27:46.986Z,66.36
2019-04-25T07:30:48.444Z,67.67
2019-04-25T07:33:15.067Z,66.65
2019-04-25T07:35:43.526Z,66.19
2019-04-25T07:38:11.826Z,67.43
2019-04-25T07:40:40.090Z,66.29
2019-04-25T07:43:08.413Z,64.77
2019-04-25T07:45:36.667Z,63.52
2019-04-25T07:48:04.920Z,63.19
2019-04-25T07:50:34.313Z,64.62
2019-04-25T07:53:03.604Z,64.62
2019-04-25T07:55:35.899Z,64.85
2019-04-25T07:58:03.238Z,64.67
2019-04-25T08:00:31.500Z,64.32
2019-04-25T08:02:59.752Z,63.47
2019-04-25T08:05:28.048Z,60.83
2019-04-25T08:07:56.292Z,61.49
2019-04-25T08:10:27.880Z,57.90
2019-04-25T08:12:56.382Z,57.83
2019-04-25T08:15:29.797Z,56.96
2019-04-25T08:18:05.844Z,57.46
2019-04-25T08:20:34.787Z,55.52
2019-04-25T08:23:04.353Z,55.17
2019-04-25T08:25:33.512Z,54.38
2019-04-25T08:28:03.827Z,51.20
2019-04-25T08:30:34.182Z,44.24
2019-04-25T08:33:03.858Z,44.20
2019-04-25T08:35:34.192Z,48.78
2019-04-25T08:38:03.424Z,55.02
2019-04-25T08:40:40.451Z,49.76
2019-04-25T08:43:08.796Z,47.58
2019-04-25T08:45:38.372Z,48.76
2019-04-25T08:48:06.861Z,51.07
2019-04-25T08:50:46.033Z,52.75
2019-04-25T08:53:15.424Z,49.97
2019-04-25T08:55:48.087Z,49.16
2019-04-25T08:58:18.016Z,46.02
2019-04-25T09:00:58.128Z,48.59
2019-04-25T09:03:38.007Z,46.56
2019-04-25T09:06:06.592Z,45.50
2019-04-25T09:08:35.978Z,40.86
2019-04-25T09:11:04.876Z,37.89
2019-04-25T09:13:35.810Z,36.52
2019-04-25T09:16:03.608Z,38.26
2019-04-25T09:18:31.953Z,28.30
2019-04-25T09:21:00.231Z,32.64
2019-04-25T09:23:28.492Z,27.87
2019-04-25T09:25:56.779Z,25.25
2019-04-25T09:28:25.023Z,25.89
2019-04-25T09:30:54.007Z,22.52
2019-04-25T09:33:23.261Z,22.52
2019-04-25T09:35:51.594Z,19.51
2019-04-25T09:38:19.859Z,21.07
2019-04-25T09:40:48.181Z,18.70
2019-04-25T09:43:16.446Z,19.89
2019-04-25T09:45:53.253Z,20.98
2019-04-25T09:48:23.343Z,19.28
2019-04-25T09:51:05.678Z,17.38
2019-04-25T09:53:38.914Z,17.62
2019-04-25T09:56:09.447Z,18.28
2019-04-25T09:58:42.641Z,17.21
2019-04-25T10:01:16.035Z,16.49
2019-04-25T10:03:45.417Z,16.56
2019-04-25T10:06:15.062Z,16.92
2019-04-25T10:08:45.363Z,17.91
2019-04-25T10:11:14.802Z,18.53
2019-04-25T10:13:46.624Z,18.18
2019-04-25T10:16:14.934Z,17.50
2019-04-25T10:18:43.756Z,17.96
2019-04-25T10:21:14.308Z,19.19
2019-04-25T10:23:44.076Z,18.02
2019-04-25T10:26:12.714Z,20.19
2019-04-25T10:28:41.640Z,18.93
2019-04-25T10:31:10.557Z,19.14
2019-04-25T10:33:39.722Z,18.69
2019-04-25T10:36:08.372Z,17.29
2019-04-25T10:38:37.586Z,18.01
2019-04-25T10:41:05.843Z,16.99
2019-04-25T10:43:34.314Z,18.49
2019-04-25T10:46:03.497Z,19.04
2019-04-25T10:48:34.301Z,19.27
2019-04-25T10:51:04.132Z,18.11
2019-04-25T10:53:33.838Z,17.76
2019-04-25T10:56:05.601Z,19.73
2019-04-25T10:58:33.794Z,20.25
2019-04-25T11:01:02.527Z,19.96
2019-04-25T11:03:33.769Z,19.63
2019-04-25T11:06:03.802Z,18.60
2019-04-25T11:08:33.857Z,19.12
2019-04-25T11:11:03.770Z,19.07
2019-04-25T11:13:33.925Z,18.51
2019-04-25T11:16:03.540Z,18.45
2019-04-25T11:18:31.875Z,19.36
2019-04-25T11:21:00.141Z,18.96
2019-04-25T11:23:29.401Z,18.99
2019-04-25T11:25:57.665Z,18.94
2019-04-25T11:28:25.934Z,19.29
2019-04-25T11:30:55.514Z,17.83
2019-04-25T11:33:24.710Z,18.49
2019-04-25T11:35:53.577Z,18.19
2019-04-25T11:38:27.765Z,18.06
2019-04-25T11:41:03.986Z,18.60
2019-04-25T11:43:33.728Z,18.56
2019-04-25T11:46:04.815Z,18.40
2019-04-25T11:48:34.011Z,18.90
2019-04-25T11:51:03.669Z,19.23
2019-04-25T11:53:33.783Z,18.48
2019-04-25T11:56:03.647Z,18.94
2019-04-25T11:58:32.117Z,19.46
2019-04-25T12:01:00.376Z,19.33
2019-04-25T12:03:28.677Z,18.95
2019-04-25T12:05:56.935Z,18.85
2019-04-25T12:08:25.212Z,19.40
2019-04-25T12:10:54.806Z,19.29
2019-04-25T12:13:24.244Z,19.71
2019-04-25T12:15:54.546Z,19.35
2019-04-25T12:18:22.738Z,19.87
2019-04-25T12:20:51.038Z,18.95
2019-04-25T12:23:19.304Z,18.36
2019-04-25T12:25:47.627Z,19.56
2019-04-25T12:28:15.931Z,19.93
2019-04-25T12:30:45.819Z,20.03
2019-04-25T12:33:21.004Z,19.12
2019-04-25T12:35:48.227Z,20.73
2019-04-25T12:38:16.522Z,18.14
2019-04-25T12:40:46.152Z,17.94
2019-04-25T12:43:14.793Z,18.73
2019-04-25T12:45:45.658Z,19.62
2019-04-25T12:48:15.940Z,18.47
2019-04-25T12:50:44.268Z,18.11
2019-04-25T12:53:13.951Z,17.59
2019-04-25T12:55:42.182Z,17.83
2019-04-25T12:58:10.474Z,19.84
2019-04-25T13:00:47.995Z,17.43
2019-04-25T13:03:08.815Z,15.85
2019-04-25T13:05:37.104Z,18.71
2019-04-25T13:08:05.422Z,15.72
2019-04-25T13:10:34.350Z,16.11
2019-04-25T13:13:03.973Z,15.84
2019-04-25T13:15:33.460Z,17.26
2019-04-25T13:18:03.474Z,16.08
2019-04-25T13:20:31.773Z,16.64
2019-04-25T13:23:00.601Z,16.03
2019-04-25T13:25:29.120Z,15.60
2019-04-25T13:28:11.014Z,17.12
2019-04-25T13:31:03.953Z,18.16
2019-04-25T13:33:30.786Z,17.02
2019-04-25T13:36:18.618Z,18.22
2019-04-25T13:38:47.001Z,17.68
2019-04-25T13:41:15.243Z,17.81
2019-04-25T13:43:43.546Z,18.34
2019-04-25T13:46:15.830Z,18.81
2019-04-25T13:48:43.187Z,16.94
2019-04-25T13:51:11.505Z,16.24
2019-04-25T13:53:40.141Z,17.05
2019-04-25T13:56:08.532Z,16.46
2019-04-25T13:58:37.200Z,17.85
2019-04-25T14:01:13.125Z,15.34
2019-04-25T14:03:37.523Z,15.64
2019-04-25T14:06:06.070Z,17.34
2019-04-25T14:08:34.311Z,15.69
2019-04-25T14:11:04.977Z,15.62
2019-04-25T14:13:32.643Z,16.62
2019-04-25T14:16:04.981Z,17.36
2019-04-25T14:18:50.985Z,16.00
2019-04-25T14:21:20.825Z,17.97
2019-04-25T14:23:49.937Z,15.82
2019-04-25T14:26:18.220Z,15.38
2019-04-25T14:28:46.550Z,15.79
2019-04-25T14:31:30.447Z,16.17
2019-04-25T14:33:46.520Z,17.03
2019-04-25T14:36:14.964Z,15.09
2019-04-25T14:38:43.231Z,16.12
2019-04-25T14:41:11.993Z,16.94
2019-04-25T14:43:40.248Z,15.92
2019-04-25T14:46:08.550Z,15.23
2019-04-25T14:48:36.800Z,17.31
2019-04-25T14:51:05.152Z,17.37
2019-04-25T14:53:34.089Z,16.92
2019-04-25T14:56:23.705Z,17.91
2019-04-25T14:58:51.981Z,18.80
2019-04-25T15:01:22.703Z,19.29
2019-04-25T15:03:51.371Z,17.50
2019-04-25T15:06:19.717Z,18.63
2019-04-25T15:08:48.068Z,19.86
2019-04-25T15:11:16.419Z,19.33
2019-04-25T15:13:44.704Z,18.94
2019-04-25T15:16:13.001Z,19.33
2019-04-25T15:18:46.921Z,20.67
2019-04-25T15:21:12.035Z,20.67
2019-04-25T15:23:40.288Z,20.04
2019-04-25T15:26:08.620Z,19.99
2019-04-25T15:28:36.878Z,19.88
2019-04-25T15:31:05.324Z,19.91
2019-04-25T15:33:33.575Z,19.37
2019-04-25T15:36:03.492Z,20.17
2019-04-25T15:38:36.090Z,20.37
2019-04-25T15:41:11.724Z,20.30
2019-04-25T15:43:44.618Z,20.84
2019-04-25T15:46:14.625Z,21.02
2019-04-25T15:48:42.876Z,21.69
2019-04-25T15:51:11.172Z,22.04
2019-04-25T15:53:40.627Z,22.50
2019-04-25T15:56:08.933Z,20.85
2019-04-25T15:58:37.406Z,21.45
2019-04-25T16:01:06.675Z,21.27
2019-04-25T16:03:35.263Z,21.56
2019-04-25T16:06:04.031Z,22.51
2019-04-25T16:08:33.003Z,22.47
2019-04-25T16:11:01.358Z,23.03
2019-04-25T16:13:30.179Z,23.11
2019-04-25T16:15:58.444Z,23.41
2019-04-25T16:18:27.297Z,24.16
2019-04-25T16:20:54.943Z,23.58
2019-04-25T16:23:23.211Z,24.68
2019-04-25T16:25:51.486Z,24.10
2019-04-25T16:28:19.785Z,24.10
2019-04-25T16:30:48.213Z,24.34
2019-04-25T16:33:17.362Z,24.43
2019-04-25T16:35:45.705Z,24.65
2019-04-25T16:38:14.544Z,24.90
2019-04-25T16:40:42.810Z,24.85
2019-04-25T16:43:12.755Z,24.82
2019-04-25T16:45:41.386Z,25.54
2019-04-25T16:48:09.818Z,25.67
2019-04-25T16:50:38.081Z,25.72
2019-04-25T16:53:06.359Z,25.78
2019-04-25T16:55:34.693Z,25.90
2019-04-25T16:58:03.404Z,26.19
2019-04-25T17:00:36.270Z,26.38
2019-04-25T17:03:04.554Z,25.50
2019-04-25T17:05:33.282Z,25.95
2019-04-25T17:08:01.562Z,25.68
2019-04-25T17:10:30.305Z,25.76
2019-04-25T17:12:59.588Z,25.74
2019-04-25T17:15:30.513Z,26.00
2019-04-25T17:18:18.475Z,25.89
2019-04-25T17:20:51.323Z,25.84
2019-04-25T17:23:19.599Z,25.94
2019-04-25T17:25:47.858Z,25.78
2019-04-25T17:28:16.434Z,25.68
2019-04-25T17:30:46.326Z,25.84
2019-04-25T17:33:25.277Z,25.91
2019-04-25T17:36:00.953Z,25.95
2019-04-25T17:38:40.189Z,25.72
2019-04-25T17:41:08.454Z,25.97
2019-04-25T17:43:36.748Z,26.01
2019-04-25T17:46:05.887Z,26.45
2019-04-25T17:48:34.188Z,26.47
2019-04-25T17:51:02.455Z,26.84
2019-04-25T17:53:30.750Z,26.89
2019-04-25T17:55:59.900Z,26.97
2019-04-25T17:58:28.182Z,26.92
2019-04-25T18:00:56.543Z,28.12
2019-04-25T18:03:24.822Z,28.10
2019-04-25T18:05:53.090Z,27.97
2019-04-25T18:08:23.716Z,26.94
2019-04-25T18:10:51.410Z,28.34
2019-04-25T18:13:19.697Z,29.11
2019-04-25T18:18:59.182Z,30.20
2019-04-25T18:21:27.992Z,29.19
2019-04-25T18:23:57.916Z,29.49
2019-04-25T18:26:43.943Z,29.67
2019-04-25T18:29:13.861Z,29.43
2019-04-25T18:31:42.128Z,29.91
2019-04-25T18:34:12.065Z,30.90
2019-04-25T18:36:42.893Z,30.66
2019-04-25T18:39:18.732Z,30.18
2019-04-25T18:41:51.622Z,30.06
2019-04-25T18:44:20.008Z,30.48
2019-04-25T18:46:48.637Z,30.48
2019-04-25T18:49:16.917Z,31.89
2019-04-25T18:51:56.484Z,30.97
2019-04-25T18:54:27.492Z,30.97
2019-04-25T18:56:57.392Z,31.38
2019-04-25T18:59:30.069Z,33.36
2019-04-25T19:01:59.956Z,35.24
2019-04-25T19:04:46.978Z,36.09
2019-04-25T19:07:22.520Z,37.65
2019-04-25T19:09:45.667Z,38.97
2019-04-25T19:12:13.926Z,38.86
2019-04-25T19:14:43.145Z,40.29
2019-04-25T19:17:11.515Z,41.44
2019-04-25T19:19:39.839Z,43.45
2019-04-25T19:22:08.122Z,42.01
2019-04-25T19:24:36.394Z,42.53
2019-04-25T19:27:04.721Z,41.46
2019-04-25T19:29:32.966Z,42.03
2019-04-25T19:32:01.253Z,41.63
2019-04-25T19:34:29.517Z,40.79
2019-04-25T19:36:57.827Z,40.32
2019-04-25T19:39:27.691Z,40.11
2019-04-25T19:42:09.784Z,41.50
2019-04-25T19:44:38.031Z,38.16
2019-04-25T19:47:06.317Z,39.11
2019-04-25T19:49:34.714Z,37.60
2019-04-25T19:52:02.993Z,35.84
2019-04-25T19:54:31.246Z,37.68
2019-04-25T19:56:59.533Z,37.98
2019-04-25T19:59:27.795Z,38.77
2019-04-25T20:01:57.700Z,40.05
2019-04-25T20:04:30.397Z,40.59
2019-04-25T20:07:12.334Z,42.52
2019-04-25T20:09:47.794Z,42.75
2019-04-25T20:12:16.142Z,42.07
2019-04-25T20:14:45.439Z,43.38
2019-04-25T20:17:13.841Z,42.21
2019-04-25T20:19:42.098Z,43.96
2019-04-25T20:22:10.383Z,44.79
2019-04-25T20:24:38.633Z,44.90
2019-04-25T20:27:06.912Z,44.54
2019-04-25T20:29:35.170Z,44.16
2019-04-25T20:32:03.460Z,45.06
2019-04-25T20:34:31.705Z,45.48
2019-04-25T20:36:59.980Z,47.31
2019-04-25T20:39:28.235Z,46.85
2019-04-25T20:41:56.519Z,47.02
2019-04-25T20:44:24.767Z,47.59
2019-04-25T20:46:53.045Z,46.32
2019-04-25T20:49:21.305Z,45.38
2019-04-25T20:51:50.550Z,44.76
2019-04-25T20:54:18.922Z,42.37
2019-04-25T20:56:48.200Z,42.06
2019-04-25T20:59:17.331Z,42.71
2019-04-25T21:01:45.642Z,43.29
2019-04-25T21:04:32.041Z,43.87
2019-04-25T21:07:01.241Z,45.55
2019-04-25T21:09:29.560Z,46.63
2019-04-25T21:11:58.118Z,46.58
2019-04-25T21:14:42.993Z,45.32
2019-04-25T21:17:27.669Z,43.80
2019-04-25T21:19:58.453Z,48.35
2019-04-25T21:22:26.814Z,48.45
2019-04-25T21:24:55.839Z,49.08
2019-04-25T21:27:24.231Z,48.63
2019-04-25T21:29:53.363Z,48.07
2019-04-25T21:32:23.001Z,48.09
2019-04-25T21:34:51.692Z,49.87
2019-04-25T21:37:21.190Z,49.50
2019-04-25T21:39:58.036Z,48.82
2019-04-25T21:42:32.893Z,49.05
2019-04-25T21:45:01.324Z,49.38
2019-04-25T21:47:29.987Z,50.25
2019-04-25T21:49:58.598Z,53.21
2019-04-25T21:52:27.272Z,53.80
2019-04-25T21:54:55.835Z,54.15
2019-04-25T21:57:24.373Z,53.20
2019-04-25T22:00:00.393Z,52.53
2019-04-25T22:02:23.021Z,51.35
2019-04-25T22:04:51.579Z,50.62
2019-04-25T22:07:20.143Z,52.70
2019-04-25T22:09:48.674Z,53.90
2019-04-25T22:12:17.291Z,53.69
2019-04-25T22:14:45.548Z,52.83
2019-04-25T22:17:14.007Z,53.44
2019-04-25T22:19:42.515Z,54.85
2019-04-25T22:22:10.979Z,54.23
2019-04-25T22:24:39.238Z,54.81
2019-04-25T22:27:09.163Z,55.65
2019-04-25T22:29:39.062Z,55.99
2019-04-25T22:32:14.646Z,56.22
2019-04-25T22:34:52.577Z,55.56
2019-04-25T22:37:17.947Z,56.24
2019-04-25T22:39:46.383Z,58.63
2019-04-25T22:42:14.670Z,59.73
2019-04-25T22:44:42.988Z,59.25
2019-04-25T22:47:11.267Z,59.25
2019-04-25T22:49:39.524Z,59.56
2019-04-25T22:52:09.116Z,61.01
2019-04-25T22:54:37.651Z,59.95
2019-04-25T22:57:06.394Z,59.69
2019-04-25T22:59:34.981Z,59.73
2019-04-25T23:02:05.459Z,59.49
2019-04-25T23:04:35.680Z,60.07
2019-04-25T23:07:04.010Z,59.54
2019-04-25T23:09:33.913Z,59.16
2019-04-25T23:12:02.443Z,60.65
2019-04-25T23:14:31.575Z,60.56
2019-04-25T23:16:59.830Z,60.45
2019-04-25T23:19:28.111Z,60.87
2019-04-25T23:21:56.438Z,60.91
2019-04-25T23:24:26.356Z,60.35
2019-04-25T23:26:56.526Z,60.84
2019-04-25T23:29:24.791Z,60.79
2019-04-25T23:31:53.047Z,60.49
2019-04-25T23:34:21.792Z,59.91
2019-04-25T23:36:50.048Z,60.64
2019-04-25T23:39:18.498Z,62.59
2019-04-25T23:41:46.754Z,62.05
2019-04-25T23:44:15.027Z,59.79
2019-04-25T23:46:44.274Z,61.02
2019-04-25T23:49:12.771Z,60.43
2019-04-25T23:51:40.970Z,59.93
2019-04-25T23:54:09.241Z,58.58
2019-04-25T23:56:37.494Z,57.89
2019-04-25T23:59:06.044Z,57.74
